Time;durP1;ratioP1;P1;durP2;ratioP2;P2;SDS_P1;SDS_P2;PMS_P1;PMS_P2;Temp;Humidity;BMP_temperature;BMP_pressure;BME280_temperature;BME280_humidity;BME280_pressure;Samples;Min_cycle;Max_cycle;Signal;HPM_P1;HPM_P2
2023/11/07 00:03:14;;;;;;;0.98;0.50;;;;;;;;;;10186095;29;20055;-77
2023/11/07 00:08:19;;;;;;;1.30;0.40;;;;;;;;;;10194155;29;20110;-77
2023/11/07 00:13:22;;;;;;;1.52;0.47;;;;;;;;;;10184495;29;20070;-77
2023/11/07 00:18:25;;;;;;;1.80;0.30;;;;;;;;;;10184554;29;20059;-76
2023/11/07 00:23:30;;;;;;;0.50;0.38;;;;;;;;;;10192108;29;20059;-76
2023/11/07 00:28:33;;;;;;;1.17;0.50;;;;;;;;;;10184668;29;20044;-77
2023/11/07 00:33:37;;;;;;;2.05;0.73;;;;;;;;;;10181233;29;20048;-77
2023/11/07 00:38:41;;;;;;;0.85;0.57;;;;;;;;;;10191819;29;20458;-76
2023/11/07 00:43:45;;;;;;;3.70;0.50;;;;;;;;;;10190686;29;20135;-77
2023/11/07 00:48:48;;;;;;;1.73;0.50;;;;;;;;;;10199914;29;20067;-77
2023/11/07 00:53:53;;;;;;;0.40;0.40;;;;;;;;;;10187607;29;20060;-76
2023/11/07 00:58:57;;;;;;;0.73;0.45;;;;;;;;;;10178658;29;20044;-76
2023/11/07 01:04:00;;;;;;;2.22;0.52;;;;;;;;;;10195745;29;20437;-76
2023/11/07 01:09:05;;;;;;;0.90;0.63;;;;;;;;;;10183207;29;20055;-76
2023/11/07 01:14:09;;;;;;;1.35;0.50;;;;;;;;;;10190671;29;20139;-76
2023/11/07 01:19:12;;;;;;;1.23;0.55;;;;;;;;;;10196917;29;20112;-76
2023/11/07 01:24:17;;;;;;;0.55;0.30;;;;;;;;;;10197641;29;20096;-76
2023/11/07 01:29:20;;;;;;;0.98;0.50;;;;;;;;;;10180358;29;20529;-76
2023/11/07 01:34:24;;;;;;;2.65;0.60;;;;;;;;;;10197658;29;20425;-76
2023/11/07 01:39:29;;;;;;;2.05;0.40;;;;;;;;;;10200715;29;20067;-77
2023/11/07 01:44:35;;;;;;;0.43;0.30;;;;;;;;;;10195403;23;20101;-77
2023/11/07 01:49:38;;;;;;;1.92;0.65;;;;;;;;;;10150761;29;20084;-74
2023/11/07 01:54:45;;;;;;;0.50;0.30;;;;;;;;;;10151378;29;20056;-74
2023/11/07 01:59:49;;;;;;;1.45;0.40;;;;;;;;;;10157276;29;20528;-74
2023/11/07 02:04:53;;;;;;;1.50;0.52;;;;;;;;;;10154971;29;20083;-74
2023/11/07 02:09:57;;;;;;;0.57;0.50;;;;;;;;;;10146572;29;20135;-74
2023/11/07 02:15:19;;;;;;;1.77;0.60;;;;;;;;;;10151907;29;20112;-74
2023/11/07 02:20:22;;;;;;;0.73;0.55;;;;;;;;;;10135787;29;20052;-74
2023/11/07 02:25:27;;;;;;;0.65;0.40;;;;;;;;;;10154176;29;20076;-74
2023/11/07 02:30:30;;;;;;;0.75;0.40;;;;;;;;;;10141593;29;20070;-74
2023/11/07 02:35:33;;;;;;;1.50;0.70;;;;;;;;;;10132756;29;20060;-74
2023/11/07 02:40:38;;;;;;;1.45;0.60;;;;;;;;;;10151425;29;20565;-74
2023/11/07 02:45:42;;;;;;;2.22;0.50;;;;;;;;;;10133084;29;20056;-74
2023/11/07 02:50:45;;;;;;;1.17;0.45;;;;;;;;;;10150792;29;20103;-74
2023/11/07 02:55:50;;;;;;;1.95;0.40;;;;;;;;;;10139792;29;20616;-74
2023/11/07 03:00:53;;;;;;;0.80;0.40;;;;;;;;;;10119721;29;20809;-74
2023/11/07 03:05:56;;;;;;;2.28;0.60;;;;;;;;;;10129419;29;20060;-74
2023/11/07 03:11:01;;;;;;;0.65;0.50;;;;;;;;;;10125971;29;20119;-74
2023/11/07 03:16:06;;;;;;;0.55;0.30;;;;;;;;;;10125673;29;20044;-74
2023/11/07 03:21:10;;;;;;;1.63;0.45;;;;;;;;;;10133684;29;20052;-74
2023/11/07 03:26:15;;;;;;;1.05;0.40;;;;;;;;;;10144431;29;20475;-74
2023/11/07 03:31:18;;;;;;;1.10;0.40;;;;;;;;;;10147141;29;20136;-74
2023/11/07 03:36:21;;;;;;;1.27;0.50;;;;;;;;;;10128378;29;20143;-74
2023/11/07 03:41:27;;;;;;;0.57;0.40;;;;;;;;;;10107807;29;20057;-74
2023/11/07 03:46:31;;;;;;;2.15;0.52;;;;;;;;;;10116312;29;20052;-74
2023/11/07 03:51:34;;;;;;;1.00;0.40;;;;;;;;;;10144427;29;20060;-74
2023/11/07 03:56:39;;;;;;;0.98;0.43;;;;;;;;;;10121814;29;20059;-74
2023/11/07 04:01:42;;;;;;;0.75;0.30;;;;;;;;;;10150989;29;20143;-74
2023/11/07 04:06:45;;;;;;;0.60;0.40;;;;;;;;;;10137603;29;20056;-74
2023/11/07 04:11:50;;;;;;;0.65;0.47;;;;;;;;;;10152736;29;20066;-74
2023/11/07 04:16:53;;;;;;;0.63;0.63;;;;;;;;;;10146146;29;20070;-74
2023/11/07 04:21:56;;;;;;;0.50;0.30;;;;;;;;;;10147844;29;20542;-74
2023/11/07 04:27:01;;;;;;;0.47;0.30;;;;;;;;;;10128330;29;20052;-74
2023/11/07 04:32:05;;;;;;;1.08;0.60;;;;;;;;;;10145213;29;20403;-74
2023/11/07 04:37:08;;;;;;;1.38;0.75;;;;;;;;;;10146555;29;20057;-74
2023/11/07 04:42:13;;;;;;;1.50;0.43;;;;;;;;;;10141664;29;20059;-74
2023/11/07 04:47:17;;;;;;;1.38;0.47;;;;;;;;;;10138240;29;20048;-74
2023/11/07 04:52:21;;;;;;;0.85;0.40;;;;;;;;;;10159175;29;20051;-74
2023/11/07 04:57:25;;;;;;;2.83;0.57;;;;;;;;;;10150069;29;20589;-74
2023/11/07 05:02:28;;;;;;;0.50;0.50;;;;;;;;;;10144171;29;20054;-74
2023/11/07 05:07:34;;;;;;;1.42;0.57;;;;;;;;;;10152863;29;20095;-74
2023/11/07 05:12:39;;;;;;;0.33;0.33;;;;;;;;;;10134552;29;20049;-74
2023/11/07 05:17:42;;;;;;;2.42;0.77;;;;;;;;;;10139815;29;20135;-74
2023/11/07 05:22:45;;;;;;;1.40;0.90;;;;;;;;;;10126281;29;20472;-74
2023/11/07 05:27:50;;;;;;;1.50;0.73;;;;;;;;;;10143124;29;20060;-74
2023/11/07 05:32:53;;;;;;;3.10;0.93;;;;;;;;;;10151844;29;20060;-74
2023/11/07 05:37:56;;;;;;;2.00;0.85;;;;;;;;;;10135438;29;20187;-74
2023/11/07 05:43:01;;;;;;;1.67;0.88;;;;;;;;;;10132567;29;20052;-74
2023/11/07 05:48:05;;;;;;;0.80;0.60;;;;;;;;;;10129033;29;20056;-74
2023/11/07 05:53:09;;;;;;;1.63;0.98;;;;;;;;;;10136858;29;20053;-74
2023/11/07 05:58:14;;;;;;;0.73;0.60;;;;;;;;;;10146058;29;20601;-74
2023/11/07 06:03:17;;;;;;;1.00;0.60;;;;;;;;;;10147703;29;20284;-74
2023/11/07 06:08:21;;;;;;;0.75;0.70;;;;;;;;;;10148549;29;20422;-74
2023/11/07 06:13:25;;;;;;;1.23;0.70;;;;;;;;;;10145947;29;20044;-74
2023/11/07 06:18:29;;;;;;;1.92;0.70;;;;;;;;;;10148712;29;20055;-74
2023/11/07 06:23:32;;;;;;;1.45;0.60;;;;;;;;;;10147682;29;20044;-74
2023/11/07 06:28:36;;;;;;;0.95;0.73;;;;;;;;;;10146086;29;20486;-74
2023/11/07 06:33:40;;;;;;;1.67;1.00;;;;;;;;;;10144807;29;20041;-74
2023/11/07 06:38:45;;;;;;;3.22;1.10;;;;;;;;;;10145276;29;20086;-74
2023/11/07 06:43:50;;;;;;;1.15;0.90;;;;;;;;;;10133179;29;20040;-74
2023/11/07 06:48:54;;;;;;;2.03;1.00;;;;;;;;;;10134147;29;20067;-74
2023/11/07 06:54:00;;;;;;;0.95;0.70;;;;;;;;;;10141949;29;20124;-74
2023/11/07 06:59:04;;;;;;;1.63;1.00;;;;;;;;;;10128172;29;20097;-74
2023/11/07 07:04:09;;;;;;;0.35;0.35;;;;;;;;;;10145564;29;20052;-74
2023/11/07 07:09:13;;;;;;;2.88;1.35;;;;;;;;;;10125397;29;20101;-74
2023/11/07 07:14:18;;;;;;;1.60;0.90;;;;;;;;;;10142785;29;20048;-74
2023/11/07 07:19:23;;;;;;;0.50;0.50;;;;;;;;;;10134600;29;20040;-74
2023/11/07 07:24:29;;;;;;;0.65;0.45;;;;;;;;;;10141920;29;20044;-74
2023/11/07 07:29:34;;;;;;;1.57;0.70;;;;;;;;;;10142215;29;20053;-74
2023/11/07 07:34:38;;;;;;;0.68;0.63;;;;;;;;;;10153607;29;20051;-74
2023/11/07 07:39:44;;;;;;;1.60;0.70;;;;;;;;;;10147860;29;20056;-74
2023/11/07 07:44:50;;;;;;;;;;;;;;;;;;10167860;23;20428;-75
2023/11/07 07:49:55;;;;;;;1.73;1.05;;;;;;;;;;10196439;28;20038;-76
2023/11/07 07:54:58;;;;;;;1.08;0.65;;;;;;;;;;10186587;29;20045;-76
2023/11/07 08:00:11;;;;;;;1.80;0.60;;;;;;;;;;10187737;29;20059;-76
2023/11/07 08:05:17;;;;;;;0.82;0.50;;;;;;;;;;10176569;29;20055;-76
2023/11/07 08:10:22;;;;;;;0.55;0.55;;;;;;;;;;10198380;29;20058;-76
2023/11/07 08:15:26;;;;;;;1.85;0.60;;;;;;;;;;10190101;29;20881;-76
2023/11/07 08:20:30;;;;;;;2.67;0.60;;;;;;;;;;10204362;29;20047;-76
2023/11/07 08:25:33;;;;;;;1.05;0.55;;;;;;;;;;10181210;29;20044;-76
2023/11/07 08:30:38;;;;;;;0.70;0.70;;;;;;;;;;10195342;29;20576;-76
2023/11/07 08:35:41;;;;;;;0.52;0.52;;;;;;;;;;10185608;29;20047;-77
2023/11/07 08:40:44;;;;;;;0.60;0.60;;;;;;;;;;10178457;29;20484;-76
2023/11/07 08:45:50;;;;;;;0.68;0.47;;;;;;;;;;10188674;29;20393;-76
2023/11/07 08:50:53;;;;;;;0.50;0.30;;;;;;;;;;10194248;29;20054;-76
2023/11/07 08:55:56;;;;;;;0.77;0.30;;;;;;;;;;10183008;29;20155;-76
2023/11/07 09:01:01;;;;;;;0.20;0.20;;;;;;;;;;10167737;29;20044;-76
2023/11/07 09:06:05;;;;;;;0.60;0.40;;;;;;;;;;10180470;29;20046;-76
2023/11/07 09:11:09;;;;;;;0.47;0.43;;;;;;;;;;10178760;29;20047;-76
2023/11/07 09:16:15;;;;;;;0.80;0.63;;;;;;;;;;10170553;29;20040;-76
2023/11/07 09:21:19;;;;;;;0.57;0.50;;;;;;;;;;10193356;29;20131;-76
2023/11/07 09:26:22;;;;;;;0.47;0.38;;;;;;;;;;10174511;29;20051;-77
2023/11/07 09:31:28;;;;;;;1.90;0.43;;;;;;;;;;10183499;29;20058;-76
2023/11/07 09:36:31;;;;;;;1.17;0.40;;;;;;;;;;10183634;29;20125;-76
2023/11/07 09:41:36;;;;;;;0.65;0.40;;;;;;;;;;10184087;29;20056;-76
2023/11/07 09:46:42;;;;;;;;;;;;;;;;;;10177065;29;20040;-76
2023/11/07 09:51:47;;;;;;;0.98;0.40;;;;;;;;;;10179508;29;20014;-76
2023/11/07 09:56:54;;;;;;;0.30;0.30;;;;;;;;;;10190894;29;20047;-76
2023/11/07 10:01:59;;;;;;;1.70;0.60;;;;;;;;;;10189089;29;20051;-76
2023/11/07 10:07:02;;;;;;;1.20;0.77;;;;;;;;;;10176379;29;20044;-76
2023/11/07 10:12:15;;;;;;;0.60;0.40;;;;;;;;;;10185655;29;20070;-76
2023/11/07 10:17:23;;;;;;;0.30;0.30;;;;;;;;;;10183847;29;20526;-76
2023/11/07 10:22:27;;;;;;;0.40;0.40;;;;;;;;;;10179612;29;20466;-76
2023/11/07 10:27:30;;;;;;;0.35;0.35;;;;;;;;;;10183572;29;20047;-76
2023/11/07 10:32:47;;;;;;;0.55;0.28;;;;;;;;;;10184534;29;20048;-76
2023/11/07 10:37:51;;;;;;;0.57;0.30;;;;;;;;;;10175586;29;20107;-76
2023/11/07 10:42:54;;;;;;;1.08;0.50;;;;;;;;;;10187244;29;20043;-77
2023/11/07 10:48:00;;;;;;;0.20;0.20;;;;;;;;;;10167056;29;20131;-76
2023/11/07 10:53:03;;;;;;;1.08;0.60;;;;;;;;;;10178431;29;20107;-76
2023/11/07 10:58:10;;;;;;;0.38;0.30;;;;;;;;;;10179741;29;20058;-77
2023/11/07 11:03:16;;;;;;;0.47;0.40;;;;;;;;;;10182283;29;20056;-76
2023/11/07 11:08:25;;;;;;;1.65;0.40;;;;;;;;;;10182425;29;20059;-76
2023/11/07 11:13:29;;;;;;;0.93;0.30;;;;;;;;;;10180782;29;20070;-76
2023/11/07 11:18:45;;;;;;;1.85;0.20;;;;;;;;;;10189204;29;20060;-76
2023/11/07 11:23:58;;;;;;;0.50;0.20;;;;;;;;;;10170273;29;20040;-76
2023/11/07 11:29:21;;;;;;;1.42;0.60;;;;;;;;;;10172066;29;20143;-76
2023/11/07 11:34:28;;;;;;;2.03;0.57;;;;;;;;;;10177091;29;20063;-76
2023/11/07 11:39:45;;;;;;;0.77;0.40;;;;;;;;;;10171050;29;20056;-76
2023/11/07 11:45:27;;;;;;;0.50;0.40;;;;;;;;;;10155899;29;20451;-76
2023/11/07 11:50:37;;;;;;;0.45;0.38;;;;;;;;;;10175100;29;20130;-76
2023/11/07 11:56:11;;;;;;;1.20;0.30;;;;;;;;;;10165475;29;20056;-76
2023/11/07 12:01:15;;;;;;;1.58;0.73;;;;;;;;;;10169240;29;20630;-76
2023/11/07 12:06:22;;;;;;;1.17;0.47;;;;;;;;;;10200353;29;20426;-76
2023/11/07 12:11:25;;;;;;;0.98;0.60;;;;;;;;;;10173297;29;20131;-76
2023/11/07 12:16:29;;;;;;;3.03;1.17;;;;;;;;;;10174126;29;20115;-76
2023/11/07 12:21:34;;;;;;;1.55;0.75;;;;;;;;;;10185920;29;20056;-76
2023/11/07 12:26:41;;;;;;;0.90;0.50;;;;;;;;;;10176633;29;20036;-76
2023/11/07 12:31:45;;;;;;;0.32;0.30;;;;;;;;;;10178627;29;20071;-76
2023/11/07 12:36:49;;;;;;;0.88;0.30;;;;;;;;;;10188076;29;20038;-76
2023/11/07 12:41:53;;;;;;;0.77;0.40;;;;;;;;;;10190991;29;20047;-76
2023/11/07 12:46:57;;;;;;;0.30;0.30;;;;;;;;;;10183585;29;20044;-76
2023/11/07 12:52:08;;;;;;;2.05;0.63;;;;;;;;;;10179914;29;20062;-76
2023/11/07 12:57:16;;;;;;;1.17;0.40;;;;;;;;;;10189825;29;20051;-76
2023/11/07 13:02:22;;;;;;;1.98;0.45;;;;;;;;;;10187212;29;20464;-75
2023/11/07 13:07:29;;;;;;;1.00;0.38;;;;;;;;;;10178083;29;20055;-76
2023/11/07 13:12:32;;;;;;;3.45;0.60;;;;;;;;;;10185314;29;20044;-76
2023/11/07 13:17:37;;;;;;;1.10;0.40;;;;;;;;;;10185991;29;20051;-76
2023/11/07 13:22:42;;;;;;;0.82;0.60;;;;;;;;;;10191740;29;20539;-76
2023/11/07 13:27:48;;;;;;;0.73;0.30;;;;;;;;;;10191385;29;20059;-76
2023/11/07 13:32:51;;;;;;;2.20;0.60;;;;;;;;;;10191739;29;20059;-76
2023/11/07 13:37:55;;;;;;;1.15;0.40;;;;;;;;;;10174735;29;20091;-76
2023/11/07 13:42:59;;;;;;;1.27;0.57;;;;;;;;;;10184844;29;20067;-75
2023/11/07 13:48:02;;;;;;;1.08;0.40;;;;;;;;;;10225102;23;20055;-73
2023/11/07 13:53:07;;;;;;;1.45;0.45;;;;;;;;;;10233133;29;20043;-73
2023/11/07 13:58:11;;;;;;;0.95;0.45;;;;;;;;;;10234753;29;20470;-73
2023/11/07 14:03:14;;;;;;;1.42;0.60;;;;;;;;;;10236839;29;20051;-73
2023/11/07 14:08:19;;;;;;;1.85;0.57;;;;;;;;;;10237000;29;20409;-73
2023/11/07 14:13:23;;;;;;;0.80;0.30;;;;;;;;;;10236864;29;20051;-73
2023/11/07 14:18:26;;;;;;;2.20;0.68;;;;;;;;;;10226504;29;20052;-73
2023/11/07 14:23:33;;;;;;;2.97;0.70;;;;;;;;;;10226814;29;20718;-74
2023/11/07 14:28:37;;;;;;;0.63;0.30;;;;;;;;;;10216555;29;20581;-73
2023/11/07 14:33:43;;;;;;;0.85;0.40;;;;;;;;;;10235255;29;20393;-73
2023/11/07 14:38:48;;;;;;;2.15;0.60;;;;;;;;;;10222652;29;20055;-73
2023/11/07 14:43:52;;;;;;;2.60;0.93;;;;;;;;;;10201273;29;20039;-73
2023/11/07 14:48:55;;;;;;;2.00;0.80;;;;;;;;;;10241354;29;20289;-74
2023/11/07 14:54:01;;;;;;;1.55;0.90;;;;;;;;;;10212956;29;20051;-74
2023/11/07 14:59:06;;;;;;;3.13;0.70;;;;;;;;;;10224143;29;20405;-74
2023/11/07 15:04:09;;;;;;;2.08;0.88;;;;;;;;;;10234668;29;20043;-73
2023/11/07 15:09:14;;;;;;;1.58;1.05;;;;;;;;;;10227197;29;20048;-73
2023/11/07 15:14:18;;;;;;;1.63;1.10;;;;;;;;;;10233632;29;20151;-73
2023/11/07 15:19:22;;;;;;;2.92;1.13;;;;;;;;;;10205451;29;20051;-73
2023/11/07 15:24:27;;;;;;;2.63;1.13;;;;;;;;;;10225171;29;20055;-73
2023/11/07 15:29:31;;;;;;;2.70;0.95;;;;;;;;;;10220299;29;20050;-73
2023/11/07 15:34:36;;;;;;;2.60;0.57;;;;;;;;;;10224352;29;20055;-73
2023/11/07 15:39:42;;;;;;;1.95;0.75;;;;;;;;;;10223907;29;20048;-73
2023/11/07 15:44:45;;;;;;;2.73;0.70;;;;;;;;;;10227008;29;20051;-73
2023/11/07 15:49:48;;;;;;;1.10;0.75;;;;;;;;;;10210671;29;20497;-73
2023/11/07 15:54:53;;;;;;;1.75;0.68;;;;;;;;;;10228000;29;20134;-73
2023/11/07 15:59:57;;;;;;;1.25;0.68;;;;;;;;;;10233571;29;20055;-73
2023/11/07 16:05:01;;;;;;;1.08;0.80;;;;;;;;;;10224508;29;20102;-73
2023/11/07 16:10:07;;;;;;;6.60;1.33;;;;;;;;;;10232600;28;20509;-73
2023/11/07 16:15:11;;;;;;;2.75;1.00;;;;;;;;;;10208925;29;20517;-73
2023/11/07 16:20:16;;;;;;;2.20;0.93;;;;;;;;;;10239164;29;20135;-73
2023/11/07 16:25:24;;;;;;;2.05;0.60;;;;;;;;;;10240653;29;20051;-73
2023/11/07 16:30:50;;;;;;;2.42;0.60;;;;;;;;;;10216058;29;20054;-73
2023/11/07 16:35:53;;;;;;;1.75;0.85;;;;;;;;;;10221688;29;20613;-73
2023/11/07 16:40:58;;;;;;;2.40;0.90;;;;;;;;;;10233421;29;20071;-73
2023/11/07 16:46:02;;;;;;;4.80;1.15;;;;;;;;;;10223366;29;20043;-73
2023/11/07 16:51:05;;;;;;;1.35;0.60;;;;;;;;;;10217570;29;20138;-73
2023/11/07 16:56:10;;;;;;;4.10;0.90;;;;;;;;;;10232696;29;20122;-73
2023/11/07 17:01:13;;;;;;;1.67;0.75;;;;;;;;;;10222223;29;20134;-73
2023/11/07 17:06:17;;;;;;;0.85;0.82;;;;;;;;;;10233415;29;20051;-73
2023/11/07 17:11:22;;;;;;;2.28;0.70;;;;;;;;;;10239839;29;20091;-73
2023/11/07 17:16:25;;;;;;;0.77;0.60;;;;;;;;;;10233573;29;20625;-73
2023/11/07 17:21:29;;;;;;;4.65;1.10;;;;;;;;;;10235623;28;20126;-73
2023/11/07 17:26:33;;;;;;;2.08;0.70;;;;;;;;;;10227421;28;20052;-73
2023/11/07 17:31:37;;;;;;;3.53;0.93;;;;;;;;;;10218616;29;20047;-73
2023/11/07 17:36:40;;;;;;;3.97;1.85;;;;;;;;;;10236894;29;20054;-73
2023/11/07 17:41:46;;;;;;;3.30;1.50;;;;;;;;;;10239334;29;20060;-73
2023/11/07 17:46:49;;;;;;;4.78;2.03;;;;;;;;;;10230956;29;20047;-73
2023/11/07 17:51:52;;;;;;;3.35;1.42;;;;;;;;;;10242401;29;20052;-73
2023/11/07 17:56:57;;;;;;;3.15;1.63;;;;;;;;;;10224499;29;20142;-73
2023/11/07 18:02:00;;;;;;;2.60;1.00;;;;;;;;;;10219419;29;20520;-73
2023/11/07 18:07:04;;;;;;;2.63;1.50;;;;;;;;;;10228307;29;20058;-72
2023/11/07 18:12:09;;;;;;;3.28;1.30;;;;;;;;;;10234552;29;20032;-73
2023/11/07 18:17:13;;;;;;;2.63;1.80;;;;;;;;;;10209220;29;20054;-73
2023/11/07 18:22:18;;;;;;;2.45;1.60;;;;;;;;;;10238517;29;20040;-73
2023/11/07 18:27:23;;;;;;;4.30;1.23;;;;;;;;;;10230082;29;20066;-73
2023/11/07 18:32:26;;;;;;;1.83;1.20;;;;;;;;;;10235038;28;20055;-73
2023/11/07 18:37:30;;;;;;;1.65;0.85;;;;;;;;;;10228652;29;20055;-73
2023/11/07 18:42:35;;;;;;;2.15;1.13;;;;;;;;;;10219748;29;20224;-73
2023/11/07 18:47:38;;;;;;;3.03;1.20;;;;;;;;;;10234705;29;20425;-73
2023/11/07 18:52:42;;;;;;;2.45;1.20;;;;;;;;;;10231779;29;20058;-75
2023/11/07 18:57:46;;;;;;;2.55;0.90;;;;;;;;;;10235092;28;20051;-75
2023/11/07 19:02:50;;;;;;;1.75;0.60;;;;;;;;;;10225950;29;20069;-75
2023/11/07 19:07:54;;;;;;;3.28;1.08;;;;;;;;;;10230223;28;20482;-75
2023/11/07 19:12:59;;;;;;;2.35;1.00;;;;;;;;;;10227444;29;20063;-75
2023/11/07 19:18:02;;;;;;;1.70;0.80;;;;;;;;;;10221218;29;20052;-75
2023/11/07 19:23:05;;;;;;;2.22;1.00;;;;;;;;;;10220369;29;20114;-75
2023/11/07 19:28:10;;;;;;;4.00;1.08;;;;;;;;;;10238302;29;20485;-75
2023/11/07 19:33:14;;;;;;;4.03;0.93;;;;;;;;;;10232853;29;20054;-75
2023/11/07 19:38:17;;;;;;;3.17;0.95;;;;;;;;;;10228932;29;20051;-75
2023/11/07 19:43:22;;;;;;;2.03;0.90;;;;;;;;;;10236335;29;20553;-75
2023/11/07 19:48:26;;;;;;;1.33;0.77;;;;;;;;;;10274060;23;20493;-75
2023/11/07 19:53:32;;;;;;;1.75;0.80;;;;;;;;;;10284902;28;20057;-75
2023/11/07 19:58:39;;;;;;;1.50;0.70;;;;;;;;;;10279750;28;20076;-75
2023/11/07 20:03:47;;;;;;;4.25;1.77;;;;;;;;;;10280026;28;20513;-75
2023/11/07 20:08:50;;;;;;;2.13;1.17;;;;;;;;;;10277747;28;20058;-75
2023/11/07 20:13:55;;;;;;;3.40;0.90;;;;;;;;;;10261305;28;20063;-75
2023/11/07 20:18:59;;;;;;;2.15;0.90;;;;;;;;;;10284141;28;20192;-75
2023/11/07 20:24:02;;;;;;;3.63;1.00;;;;;;;;;;10274444;28;20139;-75
2023/11/07 20:29:07;;;;;;;3.85;0.88;;;;;;;;;;10277910;28;20113;-75
2023/11/07 20:34:10;;;;;;;3.42;0.90;;;;;;;;;;10276005;28;20059;-75
2023/11/07 20:39:14;;;;;;;1.45;0.85;;;;;;;;;;10274079;28;20087;-75
2023/11/07 20:44:18;;;;;;;3.60;1.23;;;;;;;;;;10273806;28;20616;-75
2023/11/07 20:49:23;;;;;;;4.13;1.30;;;;;;;;;;10286757;28;20556;-75
2023/11/07 20:54:28;;;;;;;3.20;1.10;;;;;;;;;;10277964;28;20053;-75
2023/11/07 20:59:33;;;;;;;9.70;1.40;;;;;;;;;;10281409;28;20258;-75
2023/11/07 21:04:37;;;;;;;1.45;0.85;;;;;;;;;;10278320;28;20456;-75
2023/11/07 21:09:40;;;;;;;3.22;0.93;;;;;;;;;;10281883;28;20062;-75
2023/11/07 21:14:44;;;;;;;4.22;1.10;;;;;;;;;;10257668;28;20091;-75
2023/11/07 21:19:48;;;;;;;6.60;1.08;;;;;;;;;;10279264;28;20057;-74
2023/11/07 21:24:51;;;;;;;4.00;1.30;;;;;;;;;;10275703;28;20064;-75
2023/11/07 21:29:56;;;;;;;3.85;1.30;;;;;;;;;;10252128;28;20058;-75
2023/11/07 21:35:00;;;;;;;6.65;1.50;;;;;;;;;;10254930;28;20050;-75
2023/11/07 21:40:07;;;;;;;4.43;1.90;;;;;;;;;;10263757;28;20428;-75
2023/11/07 21:45:12;;;;;;;5.50;1.60;;;;;;;;;;10276336;28;20507;-75
2023/11/07 21:50:17;;;;;;;6.55;1.65;;;;;;;;;;10280824;28;20055;-75
2023/11/07 21:55:20;;;;;;;7.72;1.52;;;;;;;;;;10261213;28;20061;-75
2023/11/07 22:00:25;;;;;;;4.15;1.38;;;;;;;;;;10263858;28;20131;-75
2023/11/07 22:05:30;;;;;;;6.72;1.58;;;;;;;;;;10277554;28;20409;-74
2023/11/07 22:10:33;;;;;;;5.07;1.27;;;;;;;;;;10269328;28;20465;-75
2023/11/07 22:15:39;;;;;;;6.57;1.50;;;;;;;;;;10275483;28;20059;-74
2023/11/07 22:20:43;;;;;;;;;;;;;;;;;;10268030;28;20106;-75
2023/11/07 22:25:46;;;;;;;6.05;1.45;;;;;;;;;;10268277;28;19922;-75
2023/11/07 22:30:52;;;;;;;5.65;0.90;;;;;;;;;;10272612;28;20055;-75
2023/11/07 22:35:55;;;;;;;3.88;1.55;;;;;;;;;;10271380;28;20062;-75
2023/11/07 22:40:59;;;;;;;2.63;0.98;;;;;;;;;;10275213;28;20452;-74
2023/11/07 22:46:04;;;;;;;7.00;1.20;;;;;;;;;;10264210;28;20056;-74
2023/11/07 22:51:07;;;;;;;3.05;1.05;;;;;;;;;;10261252;28;20055;-75
2023/11/07 22:56:10;;;;;;;2.97;1.33;;;;;;;;;;10265758;28;20047;-75
2023/11/07 23:01:18;;;;;;;4.35;1.25;;;;;;;;;;10259191;28;20059;-74
2023/11/07 23:06:23;;;;;;;4.22;0.90;;;;;;;;;;10263047;28;20043;-74
2023/11/07 23:11:28;;;;;;;1.50;0.90;;;;;;;;;;10263816;28;20414;-74
2023/11/07 23:16:33;;;;;;;5.63;1.10;;;;;;;;;;10244721;28;20061;-75
2023/11/07 23:21:37;;;;;;;4.43;1.23;;;;;;;;;;10255748;28;20059;-74
2023/11/07 23:26:40;;;;;;;2.00;0.70;;;;;;;;;;10257281;28;20051;-75
2023/11/07 23:31:45;;;;;;;1.20;0.63;;;;;;;;;;10271787;28;20055;-74
2023/11/07 23:36:48;;;;;;;2.90;0.80;;;;;;;;;;10265260;28;20055;-75
2023/11/07 23:41:52;;;;;;;1.45;0.60;;;;;;;;;;10260326;28;20404;-74
2023/11/07 23:46:57;;;;;;;4.50;0.75;;;;;;;;;;10265533;28;20058;-75
2023/11/07 23:52:00;;;;;;;1.33;0.55;;;;;;;;;;10252871;28;20040;-75
2023/11/07 23:57:04;;;;;;;2.53;0.73;;;;;;;;;;10247047;28;20046;-74
